createdAt,value
2023-03-29T00:00:17.070Z,-2.16
2023-03-29T00:03:05.360Z,-2.20
2023-03-29T00:05:35.096Z,-2.20
2023-03-29T00:08:04.189Z,-2.21
2023-03-29T00:10:33.561Z,-2.23
2023-03-29T00:13:02.370Z,-2.24
2023-03-29T00:15:30.050Z,-2.25
2023-03-29T00:17:58.096Z,-2.27
2023-03-29T00:20:25.899Z,-2.28
2023-03-29T00:22:53.532Z,-2.30
2023-03-29T00:25:21.369Z,-2.31
2023-03-29T00:27:49.245Z,-2.33
2023-03-29T00:30:17.501Z,-2.34
2023-03-29T00:32:45.964Z,-2.35
2023-03-29T00:35:13.731Z,-2.38
2023-03-29T00:37:41.477Z,-2.39
2023-03-29T00:40:11.677Z,-2.41
2023-03-29T00:42:39.428Z,-2.43
2023-03-29T00:45:10.228Z,-2.44
2023-03-29T00:47:56.868Z,-2.46
2023-03-29T00:50:40.781Z,-2.48
2023-03-29T00:53:18.375Z,-2.50
2023-03-29T00:55:54.909Z,-2.52
2023-03-29T00:58:31.792Z,-2.53
2023-03-29T01:01:19.282Z,-2.55
2023-03-29T01:03:58.205Z,-2.57
2023-03-29T01:06:29.406Z,-2.59
2023-03-29T01:09:01.357Z,-2.61
2023-03-29T01:11:41.787Z,-2.62
2023-03-29T01:14:23.738Z,-2.64
2023-03-29T01:16:51.876Z,-2.65
2023-03-29T01:19:26.463Z,-2.68
2023-03-29T01:22:25.914Z,-2.69
2023-03-29T01:25:32.700Z,-2.71
2023-03-29T01:28:10.838Z,-2.73
2023-03-29T01:31:14.520Z,-2.75
2023-03-29T01:33:55.601Z,-2.77
2023-03-29T01:36:37.802Z,-2.79
2023-03-29T01:39:07.178Z,-2.81
2023-03-29T01:42:22.022Z,-2.84
2023-03-29T01:45:05.789Z,-2.86
2023-03-29T01:47:46.134Z,-2.89
2023-03-29T01:50:40.562Z,-2.91
2023-03-29T01:53:14.481Z,-2.93
2023-03-29T01:55:47.283Z,-2.95
2023-03-29T01:58:17.567Z,-2.97
2023-03-29T02:00:47.314Z,-2.98
2023-03-29T02:03:17.822Z,-3.01
2023-03-29T02:05:45.944Z,-3.02
2023-03-29T02:08:16.296Z,-3.04
2023-03-29T02:10:44.774Z,-3.06
2023-03-29T02:13:12.495Z,-3.08
2023-03-29T02:15:40.218Z,-3.09
2023-03-29T02:18:08.175Z,-3.11
2023-03-29T02:20:40.613Z,-3.12
2023-03-29T02:23:15.664Z,-3.13
2023-03-29T02:25:45.758Z,-3.14
2023-03-29T02:28:14.521Z,-3.16
2023-03-29T02:30:51.326Z,-3.18
2023-03-29T02:33:42.108Z,-3.19
2023-03-29T02:36:15.891Z,-3.21
2023-03-29T02:38:43.938Z,-3.22
2023-03-29T02:41:13.025Z,-3.23
2023-03-29T02:43:42.469Z,-3.23
2023-03-29T02:46:11.039Z,-3.24
2023-03-29T02:48:39.655Z,-3.26
2023-03-29T02:51:16.333Z,-3.27
2023-03-29T02:53:51.987Z,-3.29
2023-03-29T02:56:20.684Z,-3.32
2023-03-29T02:58:48.440Z,-3.34
2023-03-29T03:01:17.959Z,-3.35
2023-03-29T03:03:46.518Z,-3.37
2023-03-29T03:06:15.214Z,-3.39
2023-03-29T03:08:43.086Z,-3.40
2023-03-29T03:11:10.832Z,-3.41
2023-03-29T03:13:38.532Z,-3.43
2023-03-29T03:16:07.896Z,-3.44
2023-03-29T03:18:35.666Z,-3.45
2023-03-29T03:21:04.597Z,-3.46
2023-03-29T03:23:32.501Z,-3.46
2023-03-29T03:26:00.255Z,-3.48
2023-03-29T03:28:28.360Z,-3.49
2023-03-29T03:30:56.425Z,-3.51
2023-03-29T03:33:24.839Z,-3.51
2023-03-29T03:36:11.458Z,-3.52
2023-03-29T03:38:39.623Z,-3.53
2023-03-29T03:41:07.402Z,-3.54
2023-03-29T03:43:35.989Z,-3.55
2023-03-29T03:46:04.044Z,-3.55
2023-03-29T03:48:32.391Z,-3.57
2023-03-29T03:51:07.469Z,-3.58
2023-03-29T03:53:36.186Z,-3.59
2023-03-29T03:56:24.137Z,-3.60
2023-03-29T03:59:07.309Z,-3.61
2023-03-29T04:01:55.500Z,-3.63
2023-03-29T04:04:24.118Z,-3.63
2023-03-29T04:07:02.792Z,-3.65
2023-03-29T04:09:45.297Z,-3.66
2023-03-29T04:12:21.506Z,-3.68
2023-03-29T04:14:49.827Z,-3.69
2023-03-29T04:17:22.489Z,-3.70
2023-03-29T04:20:13.486Z,-3.70
2023-03-29T04:22:41.808Z,-3.71
2023-03-29T04:25:11.725Z,-3.71
2023-03-29T04:27:59.938Z,-3.72
2023-03-29T04:30:39.154Z,-3.73
2023-03-29T04:33:32.907Z,-3.73
2023-03-29T04:36:01.491Z,-3.74
2023-03-29T04:38:31.089Z,-3.74
2023-03-29T04:41:01.084Z,-3.74
2023-03-29T04:43:47.733Z,-3.74
2023-03-29T04:46:26.615Z,-3.74
2023-03-29T04:49:12.875Z,-3.73
2023-03-29T04:51:43.932Z,-3.73
2023-03-29T04:54:11.733Z,-3.72
2023-03-29T04:57:02.362Z,-3.73
2023-03-29T04:59:48.308Z,-3.71
2023-03-29T05:02:23.122Z,-3.71
2023-03-29T05:04:51.191Z,-3.70
2023-03-29T05:07:19.873Z,-3.69
2023-03-29T05:09:48.060Z,-3.67
2023-03-29T05:12:16.065Z,-3.66
2023-03-29T05:14:53.955Z,-3.64
2023-03-29T05:17:23.978Z,-3.62
2023-03-29T05:19:51.812Z,-3.60
2023-03-29T05:22:21.516Z,-3.57
2023-03-29T05:24:49.945Z,-3.55
2023-03-29T05:27:22.800Z,-3.53
2023-03-29T05:30:01.860Z,-3.50
2023-03-29T05:32:37.339Z,-3.46
2023-03-29T05:35:05.792Z,-3.42
2023-03-29T05:37:34.354Z,-3.39
2023-03-29T05:40:10.054Z,-3.33
2023-03-29T05:42:53.704Z,-3.26
2023-03-29T05:45:22.838Z,-3.18
2023-03-29T05:47:51.139Z,-3.08
2023-03-29T05:50:18.824Z,-2.98
2023-03-29T05:52:47.723Z,-2.89
2023-03-29T05:55:15.572Z,-2.77
2023-03-29T05:57:43.239Z,-2.65
2023-03-29T06:00:23.682Z,-2.53
2023-03-29T06:02:53.720Z,-2.38
2023-03-29T06:05:22.877Z,-2.25
2023-03-29T06:08:01.725Z,-2.09
2023-03-29T06:10:42.917Z,-1.93
2023-03-29T06:13:27.746Z,-1.78
2023-03-29T06:15:56.120Z,-1.62
2023-03-29T06:18:25.988Z,-1.46
2023-03-29T06:20:53.884Z,-1.31
2023-03-29T06:23:23.048Z,-1.16
2023-03-29T06:25:55.329Z,-1.00
2023-03-29T06:28:24.089Z,-0.84
2023-03-29T06:30:54.042Z,-0.70
2023-03-29T06:33:23.175Z,-0.57
2023-03-29T06:36:04.696Z,-0.42
2023-03-29T06:38:32.489Z,-0.29
2023-03-29T06:41:12.596Z,-0.12
2023-03-29T06:44:02.151Z,-0.01
2023-03-29T06:46:37.574Z,0.09
2023-03-29T06:49:09.895Z,0.18
2023-03-29T06:52:03.493Z,0.25
2023-03-29T06:54:31.701Z,0.28
2023-03-29T06:57:05.353Z,0.32
2023-03-29T06:59:35.027Z,0.33
2023-03-29T07:02:25.989Z,0.36
2023-03-29T07:04:56.790Z,0.40
2023-03-29T07:07:53.491Z,0.42
2023-03-29T07:10:32.381Z,0.47
2023-03-29T07:13:27.956Z,0.51
2023-03-29T07:15:56.663Z,0.55
2023-03-29T07:18:34.171Z,0.60
2023-03-29T07:21:02.727Z,0.64
2023-03-29T07:23:32.346Z,0.69
2023-03-29T07:26:01.268Z,0.73
2023-03-29T07:28:29.805Z,0.78
2023-03-29T07:31:11.063Z,0.83
2023-03-29T07:33:44.837Z,0.89
2023-03-29T07:36:12.682Z,0.93
2023-03-29T07:38:41.762Z,0.97
2023-03-29T07:41:13.493Z,1.03
2023-03-29T07:43:44.180Z,1.10
2023-03-29T07:46:12.811Z,1.19
2023-03-29T07:48:40.652Z,1.28
2023-03-29T07:51:11.246Z,1.38
2023-03-29T07:53:44.876Z,1.49
2023-03-29T07:56:26.439Z,1.61
2023-03-29T07:59:23.191Z,1.79
2023-03-29T08:01:59.244Z,1.95
2023-03-29T08:04:31.754Z,2.12
2023-03-29T08:07:29.129Z,2.31
2023-03-29T08:10:03.161Z,2.52
2023-03-29T08:12:50.288Z,2.75
2023-03-29T08:15:19.574Z,2.94
2023-03-29T08:17:47.528Z,3.10
2023-03-29T08:20:18.613Z,3.22
2023-03-29T08:22:48.720Z,3.34
2023-03-29T08:25:16.839Z,3.45
2023-03-29T08:27:47.509Z,3.57
2023-03-29T08:30:18.330Z,3.72
2023-03-29T08:32:49.304Z,3.88
2023-03-29T08:35:19.265Z,4.07
2023-03-29T08:38:03.980Z,4.27
2023-03-29T08:40:31.956Z,4.46
2023-03-29T08:43:39.727Z,4.69
2023-03-29T08:46:35.391Z,4.99
2023-03-29T08:49:29.081Z,5.26
2023-03-29T08:52:03.337Z,5.47
2023-03-29T08:54:44.642Z,5.68
2023-03-29T08:57:35.756Z,5.86
2023-03-29T09:00:13.705Z,6.01
2023-03-29T09:02:43.867Z,6.16
2023-03-29T09:05:28.842Z,6.29
2023-03-29T09:08:21.229Z,6.48
2023-03-29T09:11:16.662Z,6.65
2023-03-29T09:13:51.174Z,6.79
2023-03-29T09:16:49.232Z,6.86
2023-03-29T09:19:37.448Z,6.97
2023-03-29T09:22:31.336Z,7.10
2023-03-29T09:25:30.020Z,7.21
2023-03-29T09:28:05.042Z,7.38
2023-03-29T09:31:12.230Z,7.46
2023-03-29T09:33:45.074Z,7.50
2023-03-29T09:36:34.619Z,7.54
2023-03-29T09:39:03.816Z,7.58
2023-03-29T09:41:39.185Z,7.63
2023-03-29T09:46:55.987Z,7.73
2023-03-29T09:49:34.552Z,7.75
2023-03-29T09:52:11.520Z,7.76
2023-03-29T09:54:40.163Z,7.78
2023-03-29T09:57:29.087Z,7.82
2023-03-29T09:59:58.989Z,7.80
2023-03-29T10:02:31.375Z,7.81
2023-03-29T10:05:05.988Z,7.82
2023-03-29T10:07:44.547Z,7.81
2023-03-29T10:10:42.149Z,7.79
2023-03-29T10:13:23.054Z,7.80
2023-03-29T10:16:09.233Z,7.78
2023-03-29T10:18:41.658Z,7.76
2023-03-29T10:21:12.804Z,7.75
2023-03-29T10:23:41.128Z,7.73
2023-03-29T10:26:22.908Z,7.73
2023-03-29T10:28:57.078Z,7.75
2023-03-29T10:31:25.322Z,7.79
2023-03-29T10:33:56.233Z,7.81
2023-03-29T10:36:27.329Z,7.82
2023-03-29T10:38:58.979Z,7.84
2023-03-29T10:41:28.598Z,7.86
2023-03-29T10:43:56.700Z,7.89
2023-03-29T10:46:28.564Z,7.94
2023-03-29T10:49:10.371Z,7.99
2023-03-29T10:51:38.085Z,8.03
2023-03-29T10:54:10.309Z,8.02
2023-03-29T10:56:55.617Z,8.05
2023-03-29T10:59:40.162Z,8.09
2023-03-29T11:02:13.897Z,8.10
2023-03-29T11:05:09.057Z,8.13
2023-03-29T11:08:03.235Z,8.14
2023-03-29T11:10:33.947Z,8.14
2023-03-29T11:13:27.785Z,8.16
2023-03-29T11:16:29.888Z,8.20
2023-03-29T11:19:12.934Z,8.24
2023-03-29T11:22:06.368Z,8.30
2023-03-29T11:24:39.325Z,8.34
2023-03-29T11:27:35.604Z,8.40
2023-03-29T11:30:27.773Z,8.48
2023-03-29T11:33:14.789Z,8.55
2023-03-29T11:35:50.641Z,8.64
2023-03-29T11:38:42.293Z,8.75
2023-03-29T11:41:30.449Z,8.89
2023-03-29T11:44:05.339Z,9.01
2023-03-29T11:46:40.153Z,9.10
2023-03-29T11:49:14.836Z,9.16
2023-03-29T11:52:30.249Z,9.22
2023-03-29T11:55:05.518Z,9.35
2023-03-29T11:57:42.505Z,9.44
2023-03-29T12:00:19.643Z,9.55
2023-03-29T12:02:58.016Z,9.69
2023-03-29T12:05:37.252Z,9.79
2023-03-29T12:08:16.445Z,9.91
2023-03-29T12:10:53.055Z,10.03
2023-03-29T12:13:26.594Z,10.17
2023-03-29T12:16:01.185Z,10.30
2023-03-29T12:18:45.523Z,10.41
2023-03-29T12:21:17.882Z,10.47
2023-03-29T12:23:46.398Z,10.56
2023-03-29T12:26:57.455Z,10.66
2023-03-29T12:29:40.561Z,10.80
2023-03-29T12:32:45.916Z,10.87
2023-03-29T12:36:16.371Z,10.99
2023-03-29T12:39:15.284Z,11.15
2023-03-29T12:42:23.071Z,11.34
2023-03-29T12:45:19.190Z,11.46
2023-03-29T12:47:50.949Z,11.52
2023-03-29T12:50:25.444Z,11.58
2023-03-29T12:52:53.228Z,11.65
2023-03-29T12:55:33.586Z,11.69
2023-03-29T12:58:27.272Z,11.68
2023-03-29T13:01:07.159Z,11.66
2023-03-29T13:03:46.537Z,11.63
2023-03-29T13:06:32.300Z,11.61
2023-03-29T13:09:22.958Z,11.60
2023-03-29T13:11:57.179Z,11.60
2023-03-29T13:14:30.064Z,11.58
2023-03-29T13:17:17.545Z,11.57
2023-03-29T13:20:10.085Z,11.55
2023-03-29T13:22:40.709Z,11.52
2023-03-29T13:25:32.621Z,11.48
2023-03-29T13:28:07.382Z,11.43
2023-03-29T13:31:00.029Z,11.38
2023-03-29T13:33:46.347Z,11.31
2023-03-29T13:36:34.320Z,11.25
2023-03-29T13:39:06.964Z,11.21
2023-03-29T13:41:43.100Z,11.20
2023-03-29T13:44:22.678Z,11.19
2023-03-29T13:47:02.874Z,11.16
2023-03-29T13:49:33.979Z,11.12
2023-03-29T13:52:01.744Z,11.07
2023-03-29T13:54:40.678Z,11.05
2023-03-29T13:57:08.829Z,11.05
2023-03-29T13:59:59.056Z,11.06
2023-03-29T14:02:35.620Z,11.04
2023-03-29T14:05:06.247Z,11.02
2023-03-29T14:07:38.072Z,11.00
2023-03-29T14:10:06.878Z,10.95
2023-03-29T14:12:41.664Z,10.87
2023-03-29T14:15:21.460Z,10.80
2023-03-29T14:17:52.844Z,10.74
2023-03-29T14:20:20.990Z,10.68
2023-03-29T14:22:49.680Z,10.65
2023-03-29T14:25:23.229Z,10.59
2023-03-29T14:27:55.630Z,10.52
2023-03-29T14:30:27.570Z,10.47
2023-03-29T14:32:57.006Z,10.39
2023-03-29T14:38:35.939Z,10.27
2023-03-29T14:41:07.543Z,10.21
2023-03-29T14:43:38.064Z,10.15
2023-03-29T14:46:08.880Z,10.11
2023-03-29T14:48:37.830Z,10.04
2023-03-29T14:51:07.243Z,9.98
2023-03-29T14:53:58.579Z,9.92
2023-03-29T14:56:40.051Z,9.87
2023-03-29T14:59:27.308Z,9.82
2023-03-29T15:02:04.883Z,9.78
2023-03-29T15:04:38.868Z,9.75
2023-03-29T15:07:09.322Z,9.73
2023-03-29T15:09:52.041Z,9.72
2023-03-29T15:12:23.985Z,9.69
2023-03-29T15:14:54.048Z,9.66
2023-03-29T15:17:50.118Z,9.61
2023-03-29T15:20:41.664Z,9.57
2023-03-29T15:23:15.370Z,9.53
2023-03-29T15:25:51.068Z,9.52
2023-03-29T15:28:28.752Z,9.50
2023-03-29T15:31:08.127Z,9.49
2023-03-29T15:33:39.459Z,9.48
2023-03-29T15:36:11.580Z,9.47
2023-03-29T15:38:44.726Z,9.46
2023-03-29T15:41:14.837Z,9.44
2023-03-29T15:43:43.239Z,9.43
2023-03-29T15:46:13.608Z,9.41
2023-03-29T15:48:44.656Z,9.42
2023-03-29T15:51:19.810Z,9.42
2023-03-29T15:53:48.991Z,9.41
2023-03-29T15:56:28.239Z,9.40
2023-03-29T15:58:56.171Z,9.38
2023-03-29T16:01:37.351Z,9.34
2023-03-29T16:04:09.983Z,9.30
2023-03-29T16:06:38.038Z,9.27
2023-03-29T16:09:07.049Z,9.22
2023-03-29T16:11:35.718Z,9.17
2023-03-29T16:14:11.703Z,9.13
2023-03-29T16:16:39.667Z,9.08
2023-03-29T16:19:07.700Z,9.01
2023-03-29T16:21:36.798Z,8.96
2023-03-29T16:24:05.040Z,8.92
2023-03-29T16:26:33.183Z,8.87
2023-03-29T16:29:01.421Z,8.81
2023-03-29T16:31:29.268Z,8.77
2023-03-29T16:33:57.108Z,8.72
2023-03-29T16:36:24.957Z,8.65
2023-03-29T16:38:53.564Z,8.60
2023-03-29T16:41:22.346Z,8.55
2023-03-29T16:43:50.398Z,8.50
2023-03-29T16:46:18.306Z,8.44
2023-03-29T16:48:50.170Z,8.38
2023-03-29T16:51:21.392Z,8.32
2023-03-29T16:53:55.035Z,8.23
2023-03-29T16:56:25.036Z,8.17
2023-03-29T16:58:56.114Z,8.11
2023-03-29T17:01:39.164Z,8.05
2023-03-29T17:04:07.279Z,7.99
2023-03-29T17:06:35.929Z,7.92
2023-03-29T17:09:05.095Z,7.85
2023-03-29T17:11:37.152Z,7.79
2023-03-29T17:14:08.392Z,7.73
2023-03-29T17:16:46.399Z,7.66
2023-03-29T17:19:18.996Z,7.60
2023-03-29T17:21:46.922Z,7.54
2023-03-29T17:24:14.889Z,7.47
2023-03-29T17:26:45.660Z,7.41
2023-03-29T17:29:13.776Z,7.34
2023-03-29T17:31:47.830Z,7.28
2023-03-29T17:34:17.432Z,7.23
2023-03-29T17:36:46.151Z,7.17
2023-03-29T17:39:18.813Z,7.10
2023-03-29T17:41:47.646Z,7.04
2023-03-29T17:44:19.060Z,6.98
2023-03-29T17:46:47.135Z,6.92
2023-03-29T17:49:15.120Z,6.86
2023-03-29T17:51:52.602Z,6.80
2023-03-29T17:54:24.953Z,6.75
2023-03-29T17:57:03.571Z,6.70
2023-03-29T17:59:37.873Z,6.65
2023-03-29T18:02:23.781Z,6.60
2023-03-29T18:04:51.957Z,6.55
2023-03-29T18:07:20.057Z,6.51
2023-03-29T18:10:08.930Z,6.47
2023-03-29T18:12:41.732Z,6.42
2023-03-29T18:15:11.251Z,6.38
2023-03-29T18:17:39.094Z,6.33
2023-03-29T18:20:11.832Z,6.29
2023-03-29T18:22:45.804Z,6.26
2023-03-29T18:25:24.369Z,6.22
2023-03-29T18:28:48.525Z,6.20
2023-03-29T18:31:03.683Z,6.18
2023-03-29T18:33:35.212Z,6.16
2023-03-29T18:36:13.310Z,6.15
2023-03-29T18:38:46.444Z,6.14
2023-03-29T18:41:16.157Z,6.13
2023-03-29T18:43:45.087Z,6.11
2023-03-29T18:46:13.339Z,6.11
2023-03-29T18:48:42.148Z,6.09
2023-03-29T18:51:12.622Z,6.08
2023-03-29T18:54:32.174Z,6.07
2023-03-29T18:56:49.199Z,6.05
2023-03-29T18:59:18.159Z,6.04
2023-03-29T19:01:46.509Z,6.03
2023-03-29T19:04:14.653Z,6.03
2023-03-29T19:06:42.674Z,6.02
2023-03-29T19:09:11.001Z,6.00
2023-03-29T19:11:38.927Z,6.00
2023-03-29T19:14:09.252Z,5.99
2023-03-29T19:16:37.608Z,5.95
2023-03-29T19:19:08.552Z,5.97
2023-03-29T19:21:36.898Z,5.95
2023-03-29T19:24:05.604Z,5.95
2023-03-29T19:26:38.501Z,5.92
2023-03-29T19:29:10.117Z,5.93
2023-03-29T19:31:39.250Z,5.92
2023-03-29T19:34:09.612Z,5.90
2023-03-29T19:36:37.813Z,5.90
2023-03-29T19:39:06.326Z,5.89
2023-03-29T19:41:34.266Z,5.88
2023-03-29T19:44:02.664Z,5.88
2023-03-29T19:46:32.099Z,5.87
2023-03-29T19:49:05.703Z,5.86
2023-03-29T19:51:34.102Z,5.86
2023-03-29T19:54:02.707Z,5.86
2023-03-29T19:56:32.132Z,5.85
2023-03-29T19:59:04.860Z,5.86
2023-03-29T20:01:32.919Z,5.85
2023-03-29T20:04:09.297Z,5.84
2023-03-29T20:06:39.510Z,5.84
2023-03-29T20:09:07.762Z,5.84
2023-03-29T20:11:36.127Z,5.83
2023-03-29T20:14:04.474Z,5.83
2023-03-29T20:16:35.931Z,5.82
2023-03-29T20:19:06.165Z,5.81
2023-03-29T20:21:42.018Z,5.80
2023-03-29T20:24:11.449Z,5.80
2023-03-29T20:26:39.949Z,5.78
2023-03-29T20:29:08.990Z,5.76
2023-03-29T20:31:37.211Z,5.75
2023-03-29T20:34:05.377Z,5.73
2023-03-29T20:36:33.681Z,5.71
2023-03-29T20:39:02.097Z,5.69
2023-03-29T20:41:31.556Z,5.66
2023-03-29T20:44:00.100Z,5.65
2023-03-29T20:46:34.934Z,5.61
2023-03-29T20:49:05.494Z,5.58
2023-03-29T20:51:33.763Z,5.55
2023-03-29T20:54:04.925Z,5.52
2023-03-29T20:56:39.634Z,5.49
2023-03-29T20:59:10.945Z,5.46
2023-03-29T21:01:40.929Z,5.42
2023-03-29T21:04:10.756Z,5.38
2023-03-29T21:06:41.647Z,5.32
2023-03-29T21:09:09.682Z,5.28
2023-03-29T21:11:37.709Z,5.23
2023-03-29T21:14:05.986Z,5.18
2023-03-29T21:16:34.553Z,5.13
2023-03-29T21:19:02.563Z,5.07
2023-03-29T21:21:30.599Z,5.01
2023-03-29T21:23:58.800Z,4.96
2023-03-29T21:26:27.087Z,4.92
2023-03-29T21:28:54.976Z,4.87
2023-03-29T21:31:23.058Z,4.81
2023-03-29T21:33:53.020Z,4.77
2023-03-29T21:36:20.999Z,4.73
2023-03-29T21:38:49.635Z,4.68
2023-03-29T21:41:18.499Z,4.63
2023-03-29T21:43:46.472Z,4.59
2023-03-29T21:46:14.847Z,4.56
2023-03-29T21:48:43.039Z,4.54
2023-03-29T21:51:10.926Z,4.53
2023-03-29T21:53:39.027Z,4.52
2023-03-29T21:56:08.213Z,4.51
2023-03-29T21:58:36.821Z,4.49
2023-03-29T22:01:07.321Z,4.48
2023-03-29T22:03:37.214Z,4.47
2023-03-29T22:06:10.522Z,4.46
2023-03-29T22:08:40.593Z,4.43
2023-03-29T22:11:16.475Z,4.44
2023-03-29T22:13:44.980Z,4.43
2023-03-29T22:16:14.122Z,4.41
2023-03-29T22:18:42.635Z,4.42
2023-03-29T22:21:27.340Z,4.43
2023-03-29T22:23:56.845Z,4.43
2023-03-29T22:26:27.833Z,4.45
2023-03-29T22:28:56.857Z,4.47
2023-03-29T22:31:26.498Z,4.49
2023-03-29T22:33:55.788Z,4.52
2023-03-29T22:36:26.380Z,4.55
2023-03-29T22:38:54.892Z,4.56
2023-03-29T22:41:24.418Z,4.58
2023-03-29T22:43:53.128Z,4.60
2023-03-29T22:46:21.913Z,4.61
2023-03-29T22:48:51.316Z,4.62
2023-03-29T22:51:19.954Z,4.63
2023-03-29T22:53:48.262Z,4.63
2023-03-29T22:56:17.230Z,4.64
2023-03-29T22:58:45.868Z,4.65
2023-03-29T23:01:14.225Z,4.66
2023-03-29T23:03:42.225Z,4.66
2023-03-29T23:06:10.195Z,4.67
2023-03-29T23:08:38.018Z,4.67
2023-03-29T23:11:07.442Z,4.67
2023-03-29T23:13:35.602Z,4.68
2023-03-29T23:16:04.863Z,4.67
2023-03-29T23:18:35.030Z,4.67
2023-03-29T23:21:05.609Z,4.67
2023-03-29T23:23:34.305Z,4.68
2023-03-29T23:26:02.571Z,4.67
2023-03-29T23:28:31.461Z,4.68
2023-03-29T23:31:04.622Z,4.65
2023-03-29T23:33:35.325Z,4.68
2023-03-29T23:36:06.023Z,4.68
2023-03-29T23:38:36.281Z,4.68
2023-03-29T23:41:06.945Z,4.68
2023-03-29T23:43:37.383Z,4.68
2023-03-29T23:46:08.919Z,4.68
2023-03-29T23:48:37.986Z,4.67
2023-03-29T23:51:08.427Z,4.68
2023-03-29T23:53:37.468Z,4.68
2023-03-29T23:56:06.310Z,4.67
2023-03-29T23:58:37.509Z,4.67
